Portada
Imágenes satélite Pronóstico 10 díasClimaPredicción Marítima Ciclones Rayo AeropuertosFAQ Noticias Acerca
El tiempo : Europa África América del Norte América del Sur Asia Australia-Oceanía Otros
Idiomas Contacto

Madrid, España

Barajas

latitud: 40-27N, longitud: 003-33W, altitud: 609 m


METAR: LEMD 261800Z 01005KT CAVOK 09/M03 Q1027 NOSIG
TAF: LEMD 261700Z 2618/2724 VRB05KT CAVOK TX14/2716Z TNM02/2707Z TEMPO 2618/2701 02015KT

Hora: 19:26 (18:26 UTC)

Observación

El informe se hizo hace 26 minutos, a las 18:00 UTC
Viento 5 kt del norte
Temperatura 9°C
Humedad 43%
Presión 1027 hPa
Visibilidad 10 km o más
sin nubes por debajo de 1500 m y sin presencia de cumulonimbus.

Cambiar las unidades

Pronóstico

El informe se hizo hace 1 hora y 26 minutos, a las 17:00 UTC
Pronóstico válido del 26 a las 18 UTC al 27 a las 24 UTC
Viento 5 kt con dirección variable
Visibilidad 10 km o más
sin nubes por debajo de 1500 m y sin presencia de cumulonimbus.
Temporalmente
del 26 a las 18 UTC al 27 a las 01 UTC
Viento 15 kt del norte-noreste
La información que se ofrece en estas páginas está sujeta a una cláusula de exención de responsabilidad
El tiempo : Europa África América del Norte América del Sur Asia Australia-Oceanía Otros
Imágenes satélite Pronóstico 10 díasClimaPredicción Marítima Ciclones Rayo AeropuertosFAQ Idiomas Contacto Noticias Acerca